createdAt,value
2022-07-25T00:01:50.348Z,73.91
2022-07-25T00:04:17.750Z,73.63
2022-07-25T00:06:45.796Z,73.85
2022-07-25T00:09:12.662Z,73.52
2022-07-25T00:11:39.374Z,73.75
2022-07-25T00:14:06.983Z,73.50
2022-07-25T00:16:34.320Z,73.70
2022-07-25T00:19:01.279Z,73.70
2022-07-25T00:21:28.016Z,73.80
2022-07-25T00:23:54.701Z,73.80
2022-07-25T00:26:21.337Z,73.99
2022-07-25T00:28:48.147Z,73.74
2022-07-25T00:31:14.927Z,73.68
2022-07-25T00:33:41.619Z,73.97
2022-07-25T00:36:09.371Z,73.78
2022-07-25T00:38:36.217Z,73.68
2022-07-25T00:41:04.046Z,73.96
2022-07-25T00:43:30.879Z,73.88
2022-07-25T00:45:58.773Z,73.73
2022-07-25T00:48:27.351Z,74.14
2022-07-25T00:50:54.404Z,74.29
2022-07-25T00:53:21.567Z,74.03
2022-07-25T00:55:48.378Z,74.33
2022-07-25T00:58:15.049Z,74.11
2022-07-25T01:00:41.888Z,74.22
2022-07-25T01:03:08.579Z,74.39
2022-07-25T01:05:35.251Z,74.31
2022-07-25T01:08:02.780Z,74.35
2022-07-25T01:10:32.476Z,74.32
2022-07-25T01:12:59.184Z,74.32
2022-07-25T01:15:26.344Z,74.34
2022-07-25T01:17:53.238Z,74.40
2022-07-25T01:20:21.724Z,74.39
2022-07-25T01:22:49.177Z,74.45
2022-07-25T01:25:16.620Z,74.75
2022-07-25T01:27:43.747Z,74.58
2022-07-25T01:30:13.024Z,74.44
2022-07-25T01:32:40.119Z,74.45
2022-07-25T01:35:08.459Z,74.46
2022-07-25T01:37:35.688Z,74.25
2022-07-25T01:40:03.772Z,74.30
2022-07-25T01:42:30.486Z,74.00
2022-07-25T01:44:57.943Z,74.19
2022-07-25T01:47:24.675Z,74.07
2022-07-25T01:49:51.373Z,74.08
2022-07-25T01:52:18.515Z,73.78
2022-07-25T01:54:45.268Z,73.87
2022-07-25T01:57:11.956Z,73.65
2022-07-25T01:59:40.652Z,73.78
2022-07-25T02:02:09.155Z,73.57
2022-07-25T02:04:36.681Z,73.75
2022-07-25T02:07:04.366Z,73.87
2022-07-25T02:09:32.930Z,74.05
2022-07-25T02:11:59.663Z,73.81
2022-07-25T02:14:26.506Z,73.92
2022-07-25T02:16:53.874Z,73.48
2022-07-25T02:19:24.417Z,73.71
2022-07-25T02:21:51.273Z,73.76
2022-07-25T02:24:17.941Z,73.90
2022-07-25T02:26:44.584Z,73.76
2022-07-25T02:29:11.320Z,73.79
2022-07-25T02:31:37.932Z,73.79
2022-07-25T02:34:05.149Z,73.83
2022-07-25T02:36:32.090Z,73.64
2022-07-25T02:38:58.757Z,73.62
2022-07-25T02:41:25.424Z,73.63
2022-07-25T02:43:52.074Z,73.55
2022-07-25T02:46:18.829Z,73.55
2022-07-25T02:48:45.737Z,73.50
2022-07-25T02:51:12.525Z,73.55
2022-07-25T02:56:29.784Z,73.42
2022-07-25T02:58:57.350Z,73.22
2022-07-25T03:01:24.240Z,73.39
2022-07-25T03:03:51.042Z,73.16
2022-07-25T03:06:18.140Z,73.21
2022-07-25T03:08:44.771Z,73.41
2022-07-25T03:11:12.654Z,73.46
2022-07-25T03:13:39.343Z,73.52
2022-07-25T03:16:07.287Z,73.34
2022-07-25T03:18:34.113Z,73.50
2022-07-25T03:21:00.862Z,73.09
2022-07-25T03:23:28.335Z,73.21
2022-07-25T03:25:55.802Z,72.72
2022-07-25T03:28:23.222Z,72.97
2022-07-25T03:30:49.985Z,72.43
2022-07-25T03:33:16.634Z,72.64
2022-07-25T03:35:45.294Z,72.19
2022-07-25T03:38:11.944Z,72.17
2022-07-25T03:40:38.638Z,72.45
2022-07-25T03:43:05.574Z,72.14
2022-07-25T03:45:32.525Z,72.15
2022-07-25T03:47:59.264Z,72.06
2022-07-25T03:50:25.994Z,72.15
2022-07-25T03:52:52.597Z,72.03
2022-07-25T03:55:19.227Z,72.24
2022-07-25T03:57:45.876Z,72.19
2022-07-25T04:00:12.867Z,72.05
2022-07-25T04:02:39.982Z,71.85
2022-07-25T04:05:07.905Z,71.43
2022-07-25T04:07:34.963Z,71.60
2022-07-25T04:10:02.047Z,71.47
2022-07-25T04:12:28.817Z,71.37
2022-07-25T04:14:55.426Z,71.63
2022-07-25T04:17:22.230Z,71.47
2022-07-25T04:19:52.521Z,71.64
2022-07-25T04:22:19.504Z,71.18
2022-07-25T04:24:46.128Z,71.46
2022-07-25T04:27:12.824Z,71.22
2022-07-25T04:29:39.620Z,70.90
2022-07-25T04:32:06.618Z,70.97
2022-07-25T04:34:33.291Z,70.66
2022-07-25T04:37:00.085Z,70.41
2022-07-25T04:39:26.758Z,69.90
2022-07-25T04:41:53.360Z,69.86
2022-07-25T04:44:19.978Z,69.49
2022-07-25T04:46:46.582Z,69.60
2022-07-25T04:49:13.455Z,69.43
2022-07-25T04:51:40.210Z,69.57
2022-07-25T04:54:07.219Z,68.81
2022-07-25T04:56:33.977Z,68.69
2022-07-25T04:59:06.158Z,68.67
2022-07-25T05:01:34.042Z,68.31
2022-07-25T05:04:00.740Z,68.17
2022-07-25T05:06:27.373Z,67.49
2022-07-25T05:08:54.090Z,67.47
2022-07-25T05:11:20.811Z,67.28
2022-07-25T05:13:47.511Z,67.02
2022-07-25T05:16:14.442Z,67.07
2022-07-25T05:18:41.135Z,67.11
2022-07-25T05:21:12.666Z,67.19
2022-07-25T05:23:39.663Z,67.03
2022-07-25T05:26:06.323Z,66.71
2022-07-25T05:28:33.050Z,67.23
2022-07-25T05:30:59.689Z,67.04
2022-07-25T05:33:26.699Z,66.38
2022-07-25T05:35:53.538Z,66.94
2022-07-25T05:38:20.503Z,66.77
2022-07-25T05:40:48.071Z,65.57
2022-07-25T05:43:14.869Z,65.66
2022-07-25T05:45:41.563Z,64.86
2022-07-25T05:48:08.321Z,64.29
2022-07-25T05:50:36.951Z,63.91
2022-07-25T05:53:03.563Z,62.48
2022-07-25T05:55:30.120Z,62.41
2022-07-25T05:57:59.633Z,61.34
2022-07-25T06:00:29.401Z,61.53
2022-07-25T06:02:59.697Z,61.80
2022-07-25T06:05:26.623Z,61.10
2022-07-25T06:07:53.272Z,60.76
2022-07-25T06:10:20.483Z,61.47
2022-07-25T06:12:51.427Z,61.83
2022-07-25T06:15:23.123Z,61.66
2022-07-25T06:17:53.839Z,61.33
2022-07-25T06:20:20.833Z,61.27
2022-07-25T06:22:47.572Z,61.67
2022-07-25T06:25:15.020Z,60.76
2022-07-25T06:27:42.476Z,60.10
2022-07-25T06:30:19.146Z,59.47
2022-07-25T06:32:46.166Z,58.95
2022-07-25T06:35:12.781Z,58.07
2022-07-25T06:37:39.931Z,57.48
2022-07-25T06:40:08.145Z,56.73
2022-07-25T06:42:45.734Z,56.31
2022-07-25T06:45:13.865Z,55.64
2022-07-25T06:47:41.981Z,55.94
2022-07-25T06:50:12.023Z,53.51
2022-07-25T06:52:39.474Z,52.90
2022-07-25T06:55:07.840Z,53.62
2022-07-25T06:57:34.494Z,51.11
2022-07-25T07:00:01.313Z,50.30
2022-07-25T07:02:28.107Z,49.65
2022-07-25T07:04:54.728Z,49.25
2022-07-25T07:07:21.342Z,49.01
2022-07-25T07:09:47.987Z,49.19
2022-07-25T07:12:14.666Z,49.15
2022-07-25T07:14:41.944Z,48.51
2022-07-25T07:17:08.659Z,48.21
2022-07-25T07:19:35.324Z,48.71
2022-07-25T07:22:01.926Z,48.45
2022-07-25T07:24:28.903Z,47.80
2022-07-25T07:26:55.717Z,46.91
2022-07-25T07:29:22.368Z,46.47
2022-07-25T07:31:49.097Z,46.27
2022-07-25T07:34:16.481Z,45.63
2022-07-25T07:36:45.778Z,45.01
2022-07-25T07:39:12.449Z,44.27
2022-07-25T07:41:39.064Z,43.78
2022-07-25T07:44:05.962Z,43.97
2022-07-25T07:46:32.729Z,43.13
2022-07-25T07:48:59.481Z,44.07
2022-07-25T07:51:26.188Z,42.30
2022-07-25T07:54:11.393Z,42.44
2022-07-25T07:56:39.409Z,42.86
2022-07-25T07:59:06.317Z,43.22
2022-07-25T08:01:33.498Z,42.71
2022-07-25T08:04:00.235Z,41.81
2022-07-25T08:06:27.863Z,41.66
2022-07-25T08:08:54.599Z,41.50
2022-07-25T08:11:21.306Z,40.86
2022-07-25T08:13:48.053Z,41.17
2022-07-25T08:16:14.722Z,40.94
2022-07-25T08:18:41.733Z,40.87
2022-07-25T08:21:09.119Z,41.05
2022-07-25T08:23:38.616Z,41.51
2022-07-25T08:26:05.702Z,40.55
2022-07-25T08:28:32.561Z,40.48
2022-07-25T08:30:59.389Z,40.00
2022-07-25T08:33:26.815Z,39.33
2022-07-25T08:35:54.934Z,39.54
2022-07-25T08:38:22.960Z,38.94
2022-07-25T08:40:49.748Z,38.75
2022-07-25T08:43:17.829Z,37.93
2022-07-25T08:45:50.282Z,37.94
2022-07-25T08:48:19.070Z,38.74
2022-07-25T08:50:47.001Z,37.63
2022-07-25T08:53:32.754Z,37.40
2022-07-25T08:56:00.552Z,37.85
2022-07-25T08:58:27.212Z,37.13
2022-07-25T09:00:53.969Z,37.76
2022-07-25T09:03:20.693Z,36.65
2022-07-25T09:05:47.502Z,36.19
2022-07-25T09:08:17.417Z,36.12
2022-07-25T09:10:49.462Z,35.73
2022-07-25T09:13:16.749Z,34.77
2022-07-25T09:15:52.000Z,34.98
2022-07-25T09:18:23.370Z,34.51
2022-07-25T09:20:58.264Z,34.38
2022-07-25T09:23:30.791Z,34.46
2022-07-25T09:26:15.017Z,33.17
2022-07-25T09:28:47.498Z,33.04
2022-07-25T09:31:15.705Z,33.14
2022-07-25T09:33:59.795Z,32.94
2022-07-25T09:36:26.494Z,33.08
2022-07-25T09:38:53.588Z,33.72
2022-07-25T09:41:23.338Z,33.52
2022-07-25T09:43:50.347Z,32.76
2022-07-25T09:46:17.298Z,33.05
2022-07-25T09:48:45.248Z,33.58
2022-07-25T09:51:12.198Z,34.04
2022-07-25T09:53:40.387Z,34.16
2022-07-25T09:56:17.052Z,33.15
2022-07-25T09:58:43.737Z,34.04
2022-07-25T10:01:18.177Z,32.94
2022-07-25T10:03:50.864Z,32.91
2022-07-25T10:06:26.402Z,33.40
2022-07-25T10:08:54.066Z,32.69
2022-07-25T10:11:26.407Z,33.03
2022-07-25T10:13:54.628Z,33.68
2022-07-25T10:16:26.621Z,33.57
2022-07-25T10:18:58.197Z,33.74
2022-07-25T10:21:28.280Z,34.02
2022-07-25T10:24:05.213Z,33.41
2022-07-25T10:26:34.668Z,33.66
2022-07-25T10:29:02.254Z,33.09
2022-07-25T10:31:31.934Z,33.00
2022-07-25T10:34:01.718Z,32.62
2022-07-25T10:36:42.264Z,33.25
2022-07-25T10:39:11.607Z,32.84
2022-07-25T10:41:50.510Z,33.16
2022-07-25T10:44:17.361Z,33.76
2022-07-25T10:46:44.923Z,33.29
2022-07-25T10:49:31.704Z,32.58
2022-07-25T10:52:01.196Z,32.60
2022-07-25T10:54:36.892Z,32.73
2022-07-25T10:57:06.427Z,33.10
2022-07-25T10:59:38.551Z,32.88
2022-07-25T11:02:09.589Z,33.41
2022-07-25T11:04:36.824Z,33.62
2022-07-25T11:07:14.368Z,33.94
2022-07-25T11:09:42.940Z,33.71
2022-07-25T11:12:14.094Z,33.43
2022-07-25T11:14:42.786Z,33.79
2022-07-25T11:17:20.849Z,33.14
2022-07-25T11:20:04.192Z,31.58
2022-07-25T11:22:32.086Z,32.63
2022-07-25T11:25:00.038Z,32.45
2022-07-25T11:27:31.692Z,33.27
2022-07-25T11:30:14.081Z,32.66
2022-07-25T11:32:47.589Z,33.02
2022-07-25T11:35:14.836Z,33.05
2022-07-25T11:37:44.129Z,33.16
2022-07-25T11:40:11.181Z,33.07
2022-07-25T11:42:46.577Z,33.75
2022-07-25T11:45:37.134Z,33.98
2022-07-25T11:48:10.177Z,33.78
2022-07-25T11:50:40.265Z,34.11
2022-07-25T11:53:09.334Z,33.80
2022-07-25T11:55:40.268Z,33.70
2022-07-25T11:58:08.231Z,34.18
2022-07-25T12:00:39.817Z,34.08
2022-07-25T12:03:16.985Z,34.49
2022-07-25T12:05:47.014Z,35.10
2022-07-25T12:08:15.890Z,34.79
2022-07-25T12:10:44.063Z,34.74
2022-07-25T12:13:25.141Z,35.09
2022-07-25T12:15:52.819Z,34.67
2022-07-25T12:18:19.752Z,34.14
2022-07-25T12:20:46.430Z,34.16
2022-07-25T12:23:14.049Z,34.43
2022-07-25T12:25:45.745Z,34.58
2022-07-25T12:28:13.156Z,34.89
2022-07-25T12:30:42.829Z,34.54
2022-07-25T12:33:10.449Z,34.86
2022-07-25T12:35:39.941Z,35.25
2022-07-25T12:38:06.662Z,34.86
2022-07-25T12:40:33.726Z,34.54
2022-07-25T12:43:01.069Z,34.37
2022-07-25T12:45:27.941Z,34.41
2022-07-25T12:47:54.707Z,34.56
2022-07-25T12:50:21.669Z,33.91
2022-07-25T12:52:48.403Z,34.70
2022-07-25T12:55:17.311Z,35.11
2022-07-25T12:57:44.934Z,34.53
2022-07-25T13:00:14.445Z,34.65
2022-07-25T13:02:41.451Z,34.58
2022-07-25T13:05:08.333Z,35.04
2022-07-25T13:07:35.416Z,34.30
2022-07-25T13:10:03.731Z,34.46
2022-07-25T13:12:30.756Z,34.33
2022-07-25T13:14:57.865Z,34.25
2022-07-25T13:17:27.488Z,34.25
2022-07-25T13:19:55.456Z,34.69
2022-07-25T13:22:22.108Z,34.68
2022-07-25T13:24:48.733Z,34.78
2022-07-25T13:27:18.381Z,35.25
2022-07-25T13:29:45.090Z,34.69
2022-07-25T13:32:12.158Z,34.27
2022-07-25T13:34:41.387Z,34.42
2022-07-25T13:37:08.086Z,34.71
2022-07-25T13:39:35.672Z,34.99
2022-07-25T13:42:03.049Z,35.30
2022-07-25T13:44:29.667Z,34.98
2022-07-25T13:46:57.439Z,34.36
2022-07-25T13:49:25.020Z,34.23
2022-07-25T13:51:51.665Z,34.44
2022-07-25T13:54:18.402Z,34.56
2022-07-25T13:56:45.117Z,34.16
2022-07-25T13:59:17.301Z,33.86
2022-07-25T14:01:47.478Z,33.75
2022-07-25T14:04:14.342Z,33.99
2022-07-25T14:06:41.561Z,33.85
2022-07-25T14:09:08.744Z,33.68
2022-07-25T14:11:35.739Z,34.42
2022-07-25T14:14:02.399Z,34.13
2022-07-25T14:16:29.310Z,34.26
2022-07-25T14:18:56.221Z,34.38
2022-07-25T14:21:22.889Z,34.54
2022-07-25T14:23:49.594Z,34.84
2022-07-25T14:26:16.258Z,34.66
2022-07-25T14:28:43.600Z,34.64
2022-07-25T14:31:11.560Z,34.74
2022-07-25T14:33:40.029Z,35.02
2022-07-25T14:36:10.634Z,35.57
2022-07-25T14:38:37.283Z,35.24
2022-07-25T14:41:10.668Z,34.73
2022-07-25T14:43:39.785Z,35.28
2022-07-25T14:46:08.025Z,35.25
2022-07-25T14:48:37.367Z,35.16
2022-07-25T14:51:05.025Z,35.27
2022-07-25T14:53:32.353Z,35.14
2022-07-25T14:55:59.332Z,35.86
2022-07-25T14:58:26.003Z,35.94
2022-07-25T15:00:52.721Z,35.38
2022-07-25T15:03:19.384Z,35.75
2022-07-25T15:05:46.117Z,35.37
2022-07-25T15:08:14.216Z,34.87
2022-07-25T15:10:41.164Z,34.72
2022-07-25T15:13:29.972Z,34.17
2022-07-25T15:15:58.188Z,34.96
2022-07-25T15:18:25.050Z,34.58
2022-07-25T15:20:52.147Z,35.20
2022-07-25T15:23:20.975Z,35.66
2022-07-25T15:26:04.442Z,34.88
2022-07-25T15:28:36.586Z,34.98
2022-07-25T15:31:04.624Z,35.51
2022-07-25T15:33:31.433Z,35.63
2022-07-25T15:35:58.477Z,35.56
2022-07-25T15:38:25.223Z,35.28
2022-07-25T15:40:54.390Z,35.04
2022-07-25T15:43:21.189Z,35.27
2022-07-25T15:45:47.853Z,35.38
2022-07-25T15:48:16.182Z,35.68
2022-07-25T15:50:45.797Z,35.68
2022-07-25T15:53:12.893Z,36.42
2022-07-25T15:55:40.942Z,36.28
2022-07-25T15:58:09.583Z,36.42
2022-07-25T16:00:36.969Z,36.73
2022-07-25T16:03:04.087Z,37.15
2022-07-25T16:05:31.183Z,36.97
2022-07-25T16:08:01.034Z,37.29
2022-07-25T16:10:28.940Z,37.10
2022-07-25T16:12:55.628Z,37.99
2022-07-25T16:15:22.329Z,38.40
2022-07-25T16:17:50.575Z,38.45
2022-07-25T16:20:17.373Z,38.55
2022-07-25T16:22:44.110Z,38.67
2022-07-25T16:25:10.794Z,39.07
2022-07-25T16:27:37.963Z,39.30
2022-07-25T16:30:05.273Z,39.25
2022-07-25T16:32:31.897Z,39.55
2022-07-25T16:34:58.596Z,40.22
2022-07-25T16:37:25.283Z,40.58
2022-07-25T16:39:51.945Z,40.60
2022-07-25T16:42:20.280Z,41.75
2022-07-25T16:44:48.496Z,42.38
2022-07-25T16:47:15.131Z,44.47
2022-07-25T16:49:41.790Z,50.26
2022-07-25T16:52:08.405Z,61.19
2022-07-25T16:54:35.330Z,69.93
2022-07-25T16:57:02.030Z,74.60
2022-07-25T16:59:28.671Z,77.03
2022-07-25T17:01:55.523Z,78.28
2022-07-25T17:04:22.557Z,79.34
2022-07-25T17:06:49.505Z,80.33
2022-07-25T17:09:16.929Z,80.20
2022-07-25T17:11:43.752Z,81.09
2022-07-25T17:14:10.607Z,80.80
2022-07-25T17:16:37.835Z,79.62
2022-07-25T17:19:04.881Z,78.98
2022-07-25T17:21:31.908Z,78.37
2022-07-25T17:24:01.058Z,79.50
2022-07-25T17:26:27.869Z,78.17
2022-07-25T17:28:55.447Z,75.49
2022-07-25T17:31:22.416Z,73.04
2022-07-25T17:33:49.060Z,73.15
2022-07-25T17:36:15.782Z,73.36
2022-07-25T17:38:42.659Z,74.07
2022-07-25T17:41:09.365Z,71.92
2022-07-25T17:43:36.157Z,71.06
2022-07-25T17:46:02.856Z,71.93
2022-07-25T17:48:29.823Z,73.75
2022-07-25T17:50:56.618Z,74.61
2022-07-25T17:53:23.264Z,73.97
2022-07-25T17:55:49.950Z,74.26
2022-07-25T17:58:16.655Z,74.18
2022-07-25T18:00:43.292Z,73.67
2022-07-25T18:03:10.054Z,74.64
2022-07-25T18:05:37.171Z,78.16
2022-07-25T18:08:04.211Z,79.90
2022-07-25T18:10:30.973Z,80.08
2022-07-25T18:13:01.950Z,80.51
2022-07-25T18:15:28.724Z,81.59
2022-07-25T18:17:55.438Z,82.62
2022-07-25T18:20:22.252Z,83.34
2022-07-25T18:22:51.759Z,82.21
2022-07-25T18:25:18.455Z,82.47
2022-07-25T18:27:46.929Z,82.99
2022-07-25T18:30:15.895Z,83.17
2022-07-25T18:32:45.357Z,83.31
2022-07-25T18:35:12.113Z,85.29
2022-07-25T18:37:39.233Z,85.41
2022-07-25T18:40:07.109Z,85.05
2022-07-25T18:42:34.630Z,84.29
2022-07-25T18:45:01.437Z,84.66
2022-07-25T18:47:32.327Z,85.38
2022-07-25T18:50:02.374Z,85.04
2022-07-25T18:52:35.116Z,85.52
2022-07-25T18:55:04.475Z,85.41
2022-07-25T18:57:31.170Z,84.88
2022-07-25T19:00:02.596Z,84.06
2022-07-25T19:02:30.259Z,83.22
2022-07-25T19:04:56.991Z,82.70
2022-07-25T19:07:23.935Z,82.73
2022-07-25T19:09:53.843Z,82.66
2022-07-25T19:12:20.494Z,82.79
2022-07-25T19:14:47.213Z,82.56
2022-07-25T19:17:13.930Z,82.37
2022-07-25T19:19:41.292Z,82.04
2022-07-25T19:22:07.961Z,81.61
2022-07-25T19:24:37.820Z,81.24
2022-07-25T19:27:05.499Z,81.00
2022-07-25T19:29:32.190Z,80.88
2022-07-25T19:31:58.998Z,80.19
2022-07-25T19:34:25.956Z,80.44
2022-07-25T19:36:57.863Z,80.15
2022-07-25T19:39:25.573Z,81.50
2022-07-25T19:41:52.737Z,81.93
2022-07-25T19:44:19.892Z,82.51
2022-07-25T19:46:54.366Z,82.37
2022-07-25T19:49:21.034Z,82.96
2022-07-25T19:51:47.941Z,83.19
2022-07-25T19:54:14.543Z,82.01
2022-07-25T19:56:41.247Z,81.62
2022-07-25T19:59:08.017Z,80.56
2022-07-25T20:01:35.859Z,80.43
2022-07-25T20:04:05.228Z,80.25
2022-07-25T20:06:34.966Z,79.62
2022-07-25T20:09:02.416Z,79.79
2022-07-25T20:11:29.081Z,79.04
2022-07-25T20:13:55.915Z,77.98
2022-07-25T20:16:23.576Z,77.32
2022-07-25T20:18:51.118Z,76.95
2022-07-25T20:21:18.040Z,77.17
2022-07-25T20:23:48.073Z,77.76
2022-07-25T20:26:20.829Z,78.58
2022-07-25T20:28:55.264Z,79.06
2022-07-25T20:31:24.846Z,79.64
2022-07-25T20:33:57.814Z,79.86
2022-07-25T20:36:29.158Z,79.69
2022-07-25T20:39:01.134Z,80.04
2022-07-25T20:41:31.209Z,80.05
2022-07-25T20:44:06.401Z,80.10
2022-07-25T20:46:41.208Z,80.69
2022-07-25T20:49:13.526Z,81.08
2022-07-25T20:51:41.347Z,82.16
2022-07-25T20:54:10.197Z,82.78
2022-07-25T20:56:36.810Z,83.78
2022-07-25T20:59:06.248Z,84.90
2022-07-25T21:01:37.272Z,85.77
2022-07-25T21:04:07.855Z,85.19
2022-07-25T21:06:38.062Z,86.39
2022-07-25T21:09:06.614Z,87.51
2022-07-25T21:11:38.767Z,87.30
2022-07-25T21:14:08.619Z,88.52
2022-07-25T21:16:44.105Z,89.47
2022-07-25T21:19:16.201Z,89.65
2022-07-25T21:21:42.930Z,89.47
2022-07-25T21:24:11.922Z,90.23
2022-07-25T21:26:39.558Z,92.07
2022-07-25T21:29:09.819Z,93.12
2022-07-25T21:31:37.470Z,93.10
2022-07-25T21:34:04.214Z,93.26
2022-07-25T21:36:34.291Z,92.21
2022-07-25T21:39:01.064Z,91.48
2022-07-25T21:41:32.755Z,92.55
2022-07-25T21:43:59.718Z,91.59
2022-07-25T21:46:26.569Z,90.48
2022-07-25T21:49:12.113Z,89.64
2022-07-25T21:51:42.309Z,88.54
2022-07-25T21:54:11.801Z,88.69
2022-07-25T21:56:39.243Z,88.46
2022-07-25T21:59:06.899Z,87.59
2022-07-25T22:01:33.878Z,86.79
2022-07-25T22:04:00.628Z,86.42
2022-07-25T22:06:27.296Z,86.47
2022-07-25T22:08:54.816Z,86.26
2022-07-25T22:11:38.562Z,85.83
2022-07-25T22:14:08.879Z,85.98
2022-07-25T22:16:36.807Z,85.92
2022-07-25T22:19:04.502Z,86.70
2022-07-25T22:21:31.378Z,86.17
2022-07-25T22:23:57.985Z,85.47
2022-07-25T22:26:24.963Z,85.98
2022-07-25T22:28:51.604Z,85.59
2022-07-25T22:31:18.341Z,86.14
2022-07-25T22:33:45.086Z,85.18
2022-07-25T22:36:11.716Z,84.60
2022-07-25T22:38:38.524Z,84.70
2022-07-25T22:41:05.257Z,85.17
2022-07-25T22:43:53.162Z,84.68
2022-07-25T22:46:19.038Z,84.85
2022-07-25T22:48:45.703Z,84.54
2022-07-25T22:51:12.381Z,84.92
2022-07-25T22:53:39.087Z,85.43
2022-07-25T22:56:05.951Z,84.68
2022-07-25T22:58:32.577Z,84.34
2022-07-25T23:00:59.223Z,84.51
2022-07-25T23:03:25.999Z,85.66
2022-07-25T23:05:58.192Z,85.06
2022-07-25T23:08:24.785Z,84.96
2022-07-25T23:10:51.497Z,85.80
2022-07-25T23:13:18.780Z,84.92
2022-07-25T23:15:50.083Z,85.19
2022-07-25T23:18:17.200Z,85.80
2022-07-25T23:20:43.833Z,85.97
2022-07-25T23:23:10.499Z,86.82
2022-07-25T23:25:37.086Z,85.77
2022-07-25T23:28:03.785Z,86.48
2022-07-25T23:30:30.398Z,86.17
2022-07-25T23:32:57.187Z,86.25
2022-07-25T23:35:24.260Z,86.38
2022-07-25T23:37:50.877Z,86.05
2022-07-25T23:40:17.521Z,87.72
2022-07-25T23:42:44.207Z,87.20
2022-07-25T23:45:11.646Z,86.13
2022-07-25T23:47:39.720Z,87.64
2022-07-25T23:50:09.582Z,87.28
2022-07-25T23:52:36.217Z,86.91
2022-07-25T23:55:03.079Z,86.84
2022-07-25T23:57:29.740Z,86.29
2022-07-25T23:59:56.501Z,85.93
